Time;durP1;ratioP1;P1;durP2;ratioP2;P2;SDS_P1;SDS_P2;PMS_P1;PMS_P2;Temp;Humidity;BMP_temperature;BMP_pressure;BME280_temperature;BME280_humidity;BME280_pressure;Samples;Min_cycle;Max_cycle;Signal;HPM_P1;HPM_P2
2022/06/21 00:00:08;;;;;;;;;;;;;;;;;;5012564;28;19925;-76
2022/06/21 00:02:34;;;;;;;;;;;;;;;;;;5012792;28;20365;-77
2022/06/21 00:05:01;;;;;;;;;;;;;;;;;;5012611;28;19925;-76
2022/06/21 00:07:30;;;;;;;;;;;;;;;;;;5012888;28;20300;-77
2022/06/21 00:09:57;;;;;;;;;;;;;;;;;;5012291;28;20033;-76
2022/06/21 00:12:24;;;;;;;;;;;;;;;;;;5026199;28;19929;-77
2022/06/21 00:14:50;;;;;;;;;;;;;;;;;;5043659;22;20019;-64
2022/06/21 00:17:18;;;;;;;;;;;;;;;;;;5032427;28;19925;-64
2022/06/21 00:19:45;;;;;;;;;;;;;;;;;;5032010;28;19932;-65
2022/06/21 00:22:13;;;;;;;;;;;;;;;;;;5031897;28;19979;-63
2022/06/21 00:24:41;;;;;;;;;;;;;;;;;;5032078;28;19984;-65
2022/06/21 00:27:11;;;;;;;;;;;;;;;;;;5032056;28;20401;-64
2022/06/21 00:29:37;;;;;;;;;;;;;;;;;;5032451;28;19929;-65
2022/06/21 00:32:04;;;;;;;;;;;;;;;;;;5031979;28;20251;-65
2022/06/21 00:34:31;;;;;;;;;;;;;;;;;;5036367;28;20392;-65
2022/06/21 00:37:00;;;;;;;;;;;;;;;;;;5036486;28;19925;-65
2022/06/21 00:39:26;;;;;;;;;;;;;;;;;;5036278;28;20275;-65
2022/06/21 00:41:55;;;;;;;;;;;;;;;;;;5036160;28;19929;-64
2022/06/21 00:44:24;;;;;;;;;;;;;;;;;;5036491;28;19925;-65
2022/06/21 00:46:53;;;;;;;;;;;;;;;;;;5035941;28;20404;-65
2022/06/21 00:49:21;;;;;;;;;;;;;;;;;;5035711;28;20480;-65
2022/06/21 00:51:49;;;;;;;;;;;;;;;;;;5035760;28;19932;-65
2022/06/21 00:54:18;;;;;;;;;;;;;;;;;;5035733;28;20394;-65
2022/06/21 00:56:51;;;;;;;;;;;;;;;;;;5035763;28;20021;-63
2022/06/21 00:59:20;;;;;;;;;;;;;;;;;;5035746;28;19972;-62
2022/06/21 01:01:47;;;;;;;;;;;;;;;;;;5035613;28;19983;-64
2022/06/21 01:04:15;;;;;;;;;;;;;;;;;;5036010;28;19968;-65
2022/06/21 01:06:44;;;;;;;;;;;;;;;;;;5035680;28;19925;-64
2022/06/21 01:09:14;;;;;;;;;;;;;;;;;;5035783;28;19929;-64
2022/06/21 01:11:43;;;;;;;;;;;;;;;;;;5035251;28;19925;-64
2022/06/21 01:14:10;;;;;;;;;;;;;;;;;;5035377;28;19925;-64
2022/06/21 01:16:39;;;;;;;;;;;;;;;;;;5035223;28;19948;-64
2022/06/21 01:19:08;;;;;;;;;;;;;;;;;;5035300;28;19925;-64
2022/06/21 01:21:36;;;;;;;;;;;;;;;;;;5034803;28;19925;-64
2022/06/21 01:24:09;;;;;;;;;;;;;;;;;;5035174;28;19929;-65
2022/06/21 01:26:38;;;;;;;;;;;;;;;;;;5035044;28;19925;-65
2022/06/21 01:29:07;;;;;;;;;;;;;;;;;;5035102;28;20448;-64
2022/06/21 01:31:34;;;;;;;;;;;;;;;;;;5034540;28;19925;-64
2022/06/21 01:34:00;;;;;;;;;;;;;;;;;;5034760;28;19933;-64
2022/06/21 01:36:29;;;;;;;;;;;;;;;;;;5034947;28;20301;-64
2022/06/21 01:38:57;;;;;;;;;;;;;;;;;;5034666;28;19925;-65
2022/06/21 01:41:27;;;;;;;;;;;;;;;;;;5034699;28;19933;-64
2022/06/21 01:43:56;;;;;;;;;;;;;;;;;;5034413;28;19925;-65
2022/06/21 01:46:27;;;;;;;;;;;;;;;;;;5034673;28;19929;-64
2022/06/21 01:48:55;;;;;;;;;;;;;;;;;;5034631;28;19926;-65
2022/06/21 01:51:23;;;;;;;;;;;;;;;;;;5034333;28;19929;-63
2022/06/21 01:53:50;;;;;;;;;;;;;;;;;;5034263;28;19976;-64
2022/06/21 01:56:21;;;;;;;;;;;;;;;;;;5034601;28;19929;-64
2022/06/21 01:58:49;;;;;;;;;;;;;;;;;;5031262;28;20290;-64
2022/06/21 02:01:19;;;;;;;;;;;;;;;;;;5014558;28;20338;-64
2022/06/21 02:03:49;;;;;;;;;;;;;;;;;;5014925;28;20337;-64
2022/06/21 02:06:17;;;;;;;;;;;;;;;;;;5014863;28;19926;-64
2022/06/21 02:08:47;;;;;;;;;;;;;;;;;;5014557;28;19929;-64
2022/06/21 02:11:16;;;;;;;;;;;;;;;;;;5014143;28;19925;-64
2022/06/21 02:13:44;;;;;;;;;;;;;;;;;;5014343;28;19980;-64
2022/06/21 02:16:13;;;;;;;;;;;;;;;;;;5014526;28;19929;-64
2022/06/21 02:18:44;;;;;;;;;;;;;;;;;;5014674;28;19926;-64
2022/06/21 02:21:13;;;;;;;;;;;;;;;;;;5014127;28;19980;-64
2022/06/21 02:23:41;;;;;;;;;;;;;;;;;;5014563;28;20362;-64
2022/06/21 02:26:09;;;;;;;;;;;;;;;;;;5014180;28;20406;-64
2022/06/21 02:28:36;;;;;;;;;;;;;;;;;;5014180;28;20497;-64
2022/06/21 02:31:02;;;;;;;;;;;;;;;;;;5013870;28;19926;-64
2022/06/21 02:33:31;;;;;;;;;;;;;;;;;;5013919;28;20444;-64
2022/06/21 02:36:01;;;;;;;;;;;;;;;;;;5014308;28;19930;-64
2022/06/21 02:38:31;;;;;;;;;;;;;;;;;;5014127;28;19925;-64
2022/06/21 02:40:59;;;;;;;;;;;;;;;;;;5013667;28;19925;-64
2022/06/21 02:43:27;;;;;;;;;;;;;;;;;;5013877;28;20386;-64
2022/06/21 02:46:00;;;;;;;;;;;;;;;;;;5013675;28;19925;-65
2022/06/21 02:48:29;;;;;;;;;;;;;;;;;;5013855;28;19969;-65
2022/06/21 02:50:57;;;;;;;;;;;;;;;;;;5012459;28;19979;-63
2022/06/21 02:53:28;;;;;;;;;;;;;;;;;;4991925;28;19941;-65
2022/06/21 02:55:57;;;;;;;;;;;;;;;;;;4993112;28;19980;-65
2022/06/21 02:58:26;;;;;;;;;;;;;;;;;;4994727;28;19932;-64
2022/06/21 03:00:55;;;;;;;;;;;;;;;;;;5032852;28;19925;-65
2022/06/21 03:03:25;;;;;;;;;;;;;;;;;;5033116;28;19931;-64
2022/06/21 03:05:57;;;;;;;;;;;;;;;;;;5033552;28;19925;-61
2022/06/21 03:08:24;;;;;;;;;;;;;;;;;;5033170;28;20019;-64
2022/06/21 03:10:52;;;;;;;;;;;;;;;;;;5032907;28;20352;-64
2022/06/21 03:13:21;;;;;;;;;;;;;;;;;;5032936;28;19995;-64
2022/06/21 03:15:50;;;;;;;;;;;;;;;;;;5033328;28;20366;-64
2022/06/21 03:18:19;;;;;;;;;;;;;;;;;;5032941;28;19932;-64
2022/06/21 03:20:46;;;;;;;;;;;;;;;;;;5032717;28;19999;-65
2022/06/21 03:23:14;;;;;;;;;;;;;;;;;;5032932;28;20341;-64
2022/06/21 03:25:43;;;;;;;;;;;;;;;;;;5033146;28;19991;-64
2022/06/21 03:28:22;;;;;;;;;;;;;;;;;;5032896;28;19925;-65
2022/06/21 03:30:50;;;;;;;;;;;;;;;;;;5033385;28;20394;-65
2022/06/21 03:33:17;;;;;;;;;;;;;;;;;;5032599;28;19925;-65
2022/06/21 03:35:43;;;;;;;;;;;;;;;;;;5032884;28;20390;-64
2022/06/21 03:38:10;;;;;;;;;;;;;;;;;;5032789;28;19948;-63
2022/06/21 03:43:24;;;;;;;;;;;;;;;;;;5014709;28;19932;-63
2022/06/21 03:45:53;;;;;;;;;;;;;;;;;;5032999;28;19933;-64
2022/06/21 03:48:23;;;;;;;;;;;;;;;;;;5026676;28;20345;-63
2022/06/21 03:50:53;;;;;;;;;;;;;;;;;;5012668;28;19925;-64
2022/06/21 03:53:23;;;;;;;;;;;;;;;;;;5025316;28;19972;-64
2022/06/21 03:55:53;;;;;;;;;;;;;;;;;;5027297;28;20371;-63
2022/06/21 03:58:24;;;;;;;;;;;;;;;;;;5023180;28;19929;-64
2022/06/21 04:00:56;;;;;;;;;;;;;;;;;;5022028;28;20274;-65
2022/06/21 04:03:24;;;;;;;;;;;;;;;;;;5023007;28;19929;-66
2022/06/21 04:05:53;;;;;;;;;;;;;;;;;;5015586;28;20011;-65
2022/06/21 04:08:23;;;;;;;;;;;;;;;;;;5012427;28;20342;-63
2022/06/21 04:10:52;;;;;;;;;;;;;;;;;;5012355;28;19933;-63
2022/06/21 04:13:21;;;;;;;;;;;;;;;;;;5023441;28;19929;-64
2022/06/21 04:15:50;;;;;;;;;;;;;;;;;;5032298;28;19929;-64
2022/06/21 04:18:21;;;;;;;;;;;;;;;;;;5032147;28;19925;-65
2022/06/21 04:20:52;;;;;;;;;;;;;;;;;;5031968;28;19944;-65
2022/06/21 04:23:23;;;;;;;;;;;;;;;;;;5032226;28;19975;-65
2022/06/21 04:25:52;;;;;;;;;;;;;;;;;;5032030;28;19925;-65
2022/06/21 04:28:21;;;;;;;;;;;;;;;;;;5032135;28;19925;-65
2022/06/21 04:30:50;;;;;;;;;;;;;;;;;;5032072;28;20398;-64
2022/06/21 04:33:20;;;;;;;;;;;;;;;;;;5032034;28;19952;-64
2022/06/21 04:35:50;;;;;;;;;;;;;;;;;;5031954;28;19971;-63
2022/06/21 04:38:19;;;;;;;;;;;;;;;;;;5032342;28;19925;-65
2022/06/21 04:40:48;;;;;;;;;;;;;;;;;;5032067;28;20370;-65
2022/06/21 04:43:21;;;;;;;;;;;;;;;;;;5032272;28;19932;-64
2022/06/21 04:45:51;;;;;;;;;;;;;;;;;;5032166;28;19935;-65
2022/06/21 04:48:28;;;;;;;;;;;;;;;;;;5031996;28;20393;-63
2022/06/21 04:50:57;;;;;;;;;;;;;;;;;;5032088;28;19929;-65
2022/06/21 04:53:27;;;;;;;;;;;;;;;;;;5031973;28;19936;-64
2022/06/21 04:55:56;;;;;;;;;;;;;;;;;;5031833;28;20078;-66
2022/06/21 04:58:23;;;;;;;;;;;;;;;;;;5031790;28;19929;-65
2022/06/21 05:00:49;;;;;;;;;;;;;;;;;;5012422;28;20396;-65
2022/06/21 05:03:25;;;;;;;;;;;;;;;;;;5012357;28;19926;-65
2022/06/21 05:05:53;;;;;;;;;;;;;;;;;;5012502;28;19948;-65
2022/06/21 05:08:21;;;;;;;;;;;;;;;;;;5012173;28;19972;-65
2022/06/21 05:10:49;;;;;;;;;;;;;;;;;;5011962;28;20028;-64
2022/06/21 05:13:19;;;;;;;;;;;;;;;;;;5011866;28;19948;-64
2022/06/21 05:15:46;;;;;;;;;;;;;;;;;;5011993;28;19972;-65
2022/06/21 05:18:15;;;;;;;;;;;;;;;;;;5011913;28;19971;-65
2022/06/21 05:20:45;;;;;;;;;;;;;;;;;;5014639;28;19929;-64
2022/06/21 05:23:13;;;;;;;;;;;;;;;;;;5015468;28;19930;-64
2022/06/21 05:25:41;;;;;;;;;;;;;;;;;;5016253;28;19925;-65
2022/06/21 05:28:13;;;;;;;;;;;;;;;;;;5015709;28;20448;-64
2022/06/21 05:30:41;;;;;;;;;;;;;;;;;;5015528;28;19925;-64
2022/06/21 05:33:12;;;;;;;;;;;;;;;;;;5015659;28;20398;-64
2022/06/21 05:35:39;;;;;;;;;;;;;;;;;;5015133;28;19987;-65
2022/06/21 05:38:07;;;;;;;;;;;;;;;;;;5015570;28;20326;-64
2022/06/21 05:40:37;;;;;;;;;;;;;;;;;;5015062;28;19925;-65
2022/06/21 05:43:04;;;;;;;;;;;;;;;;;;5015378;28;19925;-65
2022/06/21 05:45:34;;;;;;;;;;;;;;;;;;5015479;28;19925;-64
2022/06/21 05:48:02;;;;;;;;;;;;;;;;;;5015443;28;19972;-64
2022/06/21 05:50:30;;;;;;;;;;;;;;;;;;5014998;28;19983;-64
2022/06/21 05:52:58;;;;;;;;;;;;;;;;;;5015079;28;19979;-64
2022/06/21 05:55:28;;;;;;;;;;;;;;;;;;5014858;28;19983;-64
2022/06/21 05:57:58;;;;;;;;;;;;;;;;;;5015004;28;19929;-64
2022/06/21 06:00:28;;;;;;;;;;;;;;;;;;5031601;28;19929;-63
2022/06/21 06:02:57;;;;;;;;;;;;;;;;;;5034433;28;19937;-66
2022/06/21 06:05:27;;;;;;;;;;;;;;;;;;5034419;28;20405;-64
2022/06/21 06:07:56;;;;;;;;;;;;;;;;;;5034370;28;19925;-63
2022/06/21 06:10:24;;;;;;;;;;;;;;;;;;5034043;28;19925;-64
2022/06/21 06:12:55;;;;;;;;;;;;;;;;;;5034462;28;19925;-64
2022/06/21 06:15:24;;;;;;;;;;;;;;;;;;5057765;22;19925;-78
2022/06/21 06:17:53;;;;;;;;;;;;;;;;;;5046932;28;19925;-77
2022/06/21 06:20:23;;;;;;;;;;;;;;;;;;5046376;28;19968;-77
2022/06/21 06:22:52;;;;;;;;;;;;;;;;;;5046841;28;19932;-78
2022/06/21 06:25:20;;;;;;;;;;;;;;;;;;5046867;28;19984;-78
2022/06/21 06:27:50;;;;;;;;;;;;;;;;;;5039249;28;19936;-78
2022/06/21 06:30:18;;;;;;;;;;;;;;;;;;5039644;28;19975;-78
2022/06/21 06:32:50;;;;;;;;;;;;;;;;;;5038162;28;19925;-78
2022/06/21 06:35:18;;;;;;;;;;;;;;;;;;5036764;28;20019;-77
2022/06/21 06:37:45;;;;;;;;;;;;;;;;;;5031920;28;19925;-76
2022/06/21 06:40:17;;;;;;;;;;;;;;;;;;5013345;28;19980;-77
2022/06/21 06:42:48;;;;;;;;;;;;;;;;;;5014549;28;20028;-77
2022/06/21 06:45:17;;;;;;;;;;;;;;;;;;5013693;28;19937;-78
2022/06/21 06:47:47;;;;;;;;;;;;;;;;;;5013960;28;19925;-78
2022/06/21 06:50:17;;;;;;;;;;;;;;;;;;5013643;28;20020;-77
2022/06/21 06:52:46;;;;;;;;;;;;;;;;;;5013959;28;19961;-77
2022/06/21 06:55:16;;;;;;;;;;;;;;;;;;5013288;28;19925;-78
2022/06/21 06:57:45;;;;;;;;;;;;;;;;;;5013644;28;19926;-77
2022/06/21 07:00:13;;;;;;;;;;;;;;;;;;5013501;28;19932;-76
2022/06/21 07:02:41;;;;;;;;;;;;;;;;;;5013553;28;20017;-76
2022/06/21 07:05:25;;;;;;;;;;;;;;;;;;5014217;28;19925;-77
2022/06/21 07:07:54;;;;;;;;;;;;;;;;;;5026876;28;19957;-76
2022/06/21 07:10:22;;;;;;;;;;;;;;;;;;5043659;28;19940;-75
2022/06/21 07:12:50;;;;;;;;;;;;;;;;;;5041861;28;19969;-77
2022/06/21 07:15:18;;;;;;;;;;;;;;;;;;5042109;28;19925;-78
2022/06/21 07:17:48;;;;;;;;;;;;;;;;;;5043343;28;19964;-78
2022/06/21 07:20:16;;;;;;;;;;;;;;;;;;5042649;28;19925;-77
2022/06/21 07:22:43;;;;;;;;;;;;;;;;;;5043448;28;19925;-77
2022/06/21 07:25:17;;;;;;;;;;;;;;;;;;5043076;28;19975;-75
2022/06/21 07:27:46;;;;;;;;;;;;;;;;;;5044873;28;19947;-76
2022/06/21 07:30:14;;;;;;;;;;;;;;;;;;5042897;28;19952;-77
2022/06/21 07:32:43;;;;;;;;;;;;;;;;;;5043767;28;19932;-77
2022/06/21 07:35:13;;;;;;;;;;;;;;;;;;5043170;28;19960;-76
2022/06/21 07:37:43;;;;;;;;;;;;;;;;;;5044514;28;19976;-77
2022/06/21 07:40:11;;;;;;;;;;;;;;;;;;5041773;28;19931;-79
2022/06/21 07:42:41;;;;;;;;;;;;;;;;;;5042041;28;20076;-77
2022/06/21 07:45:11;;;;;;;;;;;;;;;;;;5042371;28;19929;-76
2022/06/21 07:47:40;;;;;;;;;;;;;;;;;;5042716;28;19932;-78
2022/06/21 07:50:09;;;;;;;;;;;;;;;;;;5041688;28;19929;-77
2022/06/21 07:52:39;;;;;;;;;;;;;;;;;;5041054;28;19925;-78
2022/06/21 07:55:07;;;;;;;;;;;;;;;;;;5042094;28;19972;-76
2022/06/21 07:57:35;;;;;;;;;;;;;;;;;;5041946;28;19936;-76
2022/06/21 08:00:06;;;;;;;;;;;;;;;;;;5040760;28;19964;-78
2022/06/21 08:08:07;;;;;;;;;;;;;;;;;;5040756;28;20220;-76
2022/06/21 08:10:36;;;;;;;;;;;;;;;;;;5040826;28;20391;-77
2022/06/21 08:13:02;;;;;;;;;;;;;;;;;;5041364;28;20388;-77
2022/06/21 08:15:32;;;;;;;;;;;;;;;;;;5040332;28;19925;-76
2022/06/21 08:18:01;;;;;;;;;;;;;;;;;;5041076;28;19997;-74
2022/06/21 08:20:30;;;;;;;;;;;;;;;;;;5040863;28;20001;-76
2022/06/21 08:23:00;;;;;;;;;;;;;;;;;;5041208;28;19929;-77
2022/06/21 08:25:29;;;;;;;;;;;;;;;;;;5041382;28;20008;-76
2022/06/21 08:27:58;;;;;;;;;;;;;;;;;;5039751;28;20655;-76
2022/06/21 08:30:27;;;;;;;;;;;;;;;;;;5039985;28;19972;-77
2022/06/21 08:32:57;;;;;;;;;;;;;;;;;;5039810;28;19976;-75
2022/06/21 08:35:25;;;;;;;;;;;;;;;;;;5041242;28;19925;-78
2022/06/21 08:37:55;;;;;;;;;;;;;;;;;;5039524;28;19925;-76
2022/06/21 08:40:37;;;;;;;;;;;;;;;;;;5040371;28;20036;-77
2022/06/21 08:43:14;;;;;;;;;;;;;;;;;;5022263;28;19975;-78
2022/06/21 08:46:01;;;;;;;;;;;;;;;;;;5037933;28;20024;-78
2022/06/21 08:48:46;;;;;;;;;;;;;;;;;;5030621;28;19925;-77
2022/06/21 08:51:30;;;;;;;;;;;;;;;;;;5034030;28;19931;-78
2022/06/21 08:54:01;;;;;;;;;;;;;;;;;;5034533;28;19926;-78
2022/06/21 08:56:31;;;;;;;;;;;;;;;;;;5037774;28;19964;-78
2022/06/21 08:59:08;;;;;;;;;;;;;;;;;;5042658;28;19964;-78
2022/06/21 09:01:41;;;;;;;;;;;;;;;;;;5058911;28;19964;-78
2022/06/21 09:04:16;;;;;;;;;;;;;;;;;;5061002;28;19979;-78
2022/06/21 09:06:53;;;;;;;;;;;;;;;;;;5060813;28;20503;-78
2022/06/21 09:09:34;;;;;;;;;;;;;;;;;;5061257;28;19925;-78
2022/06/21 09:12:07;;;;;;;;;;;;;;;;;;5060990;28;19925;-78
2022/06/21 09:14:39;;;;;;;;;;;;;;;;;;5060867;28;20023;-77
2022/06/21 09:17:12;;;;;;;;;;;;;;;;;;5047789;28;19956;-78
2022/06/21 09:19:47;;;;;;;;;;;;;;;;;;5041404;28;19929;-78
2022/06/21 09:22:20;;;;;;;;;;;;;;;;;;5042736;28;19940;-77
2022/06/21 09:24:55;;;;;;;;;;;;;;;;;;5042858;28;20347;-77
2022/06/21 09:27:25;;;;;;;;;;;;;;;;;;5041990;28;20007;-77
2022/06/21 09:29:59;;;;;;;;;;;;;;;;;;5040584;28;19985;-78
2022/06/21 09:32:27;;;;;;;;;;;;;;;;;;5040744;28;19964;-78
2022/06/21 09:34:57;;;;;;;;;;;;;;;;;;5037451;28;19925;-78
2022/06/21 09:37:31;;;;;;;;;;;;;;;;;;5042508;28;19925;-78
2022/06/21 09:40:03;;;;;;;;;;;;;;;;;;5041849;28;20284;-78
2022/06/21 09:42:32;;;;;;;;;;;;;;;;;;5040932;28;19929;-77
2022/06/21 09:45:04;;;;;;;;;;;;;;;;;;5040239;28;19936;-77
2022/06/21 09:47:34;;;;;;;;;;;;;;;;;;5044089;28;19980;-77
2022/06/21 09:50:07;;;;;;;;;;;;;;;;;;5036375;28;20308;-77
2022/06/21 09:52:38;;;;;;;;;;;;;;;;;;5035255;28;19932;-76
2022/06/21 09:55:11;;;;;;;;;;;;;;;;;;5029392;28;20404;-77
2022/06/21 09:57:43;;;;;;;;;;;;;;;;;;5020291;28;20012;-78
2022/06/21 10:00:12;;;;;;;;;;;;;;;;;;5054177;28;20019;-78
2022/06/21 10:02:47;;;;;;;;;;;;;;;;;;5061790;28;19989;-78
2022/06/21 10:05:18;;;;;;;;;;;;;;;;;;5040231;28;20451;-76
2022/06/21 10:07:52;;;;;;;;;;;;;;;;;;5045413;28;20024;-78
2022/06/21 10:10:27;;;;;;;;;;;;;;;;;;5048558;28;20035;-77
2022/06/21 10:12:59;;;;;;;;;;;;;;;;;;5045004;28;19929;-77
2022/06/21 10:15:34;;;;;;;;;;;;;;;;;;5045170;28;19948;-77
2022/06/21 10:18:18;;;;;;;;;;;;;;;;;;5041958;28;19985;-77
2022/06/21 10:20:49;;;;;;;;;;;;;;;;;;5042165;28;20016;-77
2022/06/21 10:23:25;;;;;;;;;;;;;;;;;;5038048;28;19925;-77
2022/06/21 10:25:57;;;;;;;;;;;;;;;;;;5033922;28;20016;-77
2022/06/21 10:28:40;;;;;;;;;;;;;;;;;;5034144;28;19932;-78
2022/06/21 10:31:12;;;;;;;;;;;;;;;;;;5040113;28;19925;-76
2022/06/21 10:33:56;;;;;;;;;;;;;;;;;;5034457;28;20023;-77
2022/06/21 10:36:32;;;;;;;;;;;;;;;;;;5037411;28;19925;-78
2022/06/21 10:39:16;;;;;;;;;;;;;;;;;;5040194;28;20011;-77
2022/06/21 10:44:38;;;;;;;;;;;;;;;;;;5035840;28;19929;-77
2022/06/21 10:47:10;;;;;;;;;;;;;;;;;;5033948;28;19925;-77
2022/06/21 10:49:49;;;;;;;;;;;;;;;;;;5033159;28;19925;-77
2022/06/21 10:52:23;;;;;;;;;;;;;;;;;;5033675;28;19932;-77
2022/06/21 10:54:57;;;;;;;;;;;;;;;;;;5033037;28;19936;-77
2022/06/21 10:57:30;;;;;;;;;;;;;;;;;;5032480;28;19929;-77
2022/06/21 11:02:54;;;;;;;;;;;;;;;;;;5034166;28;20031;-77
2022/06/21 11:05:26;;;;;;;;;;;;;;;;;;5032216;28;19925;-77
2022/06/21 11:07:56;;;;;;;;;;;;;;;;;;5031991;28;19925;-77
2022/06/21 11:10:27;;;;;;;;;;;;;;;;;;5032364;28;19925;-77
2022/06/21 11:13:06;;;;;;;;;;;;;;;;;;5030876;28;20334;-77
2022/06/21 11:15:41;;;;;;;;;;;;;;;;;;5031634;28;19971;-77
2022/06/21 11:18:11;;;;;;;;;;;;;;;;;;5033063;28;20024;-77
2022/06/21 11:20:42;;;;;;;;;;;;;;;;;;5032525;28;19945;-77
2022/06/21 11:23:19;;;;;;;;;;;;;;;;;;5036276;28;19925;-77
2022/06/21 11:25:49;;;;;;;;;;;;;;;;;;5033604;28;20004;-77
2022/06/21 11:28:27;;;;;;;;;;;;;;;;;;5034219;28;20011;-76
2022/06/21 11:30:56;;;;;;;;;;;;;;;;;;5031803;28;19925;-77
2022/06/21 11:33:28;;;;;;;;;;;;;;;;;;5033448;28;20016;-77
2022/06/21 11:35:59;;;;;;;;;;;;;;;;;;5035129;28;19975;-78
2022/06/21 11:38:36;;;;;;;;;;;;;;;;;;5033473;28;20785;-78
2022/06/21 11:41:06;;;;;;;;;;;;;;;;;;5034140;28;19925;-78
2022/06/21 11:43:43;;;;;;;;;;;;;;;;;;5038884;28;19925;-79
2022/06/21 11:46:14;;;;;;;;;;;;;;;;;;5039014;28;19932;-79
2022/06/21 11:48:56;;;;;;;;;;;;;;;;;;5037047;28;19955;-79
2022/06/21 11:51:33;;;;;;;;;;;;;;;;;;5037703;28;20012;-78
2022/06/21 11:54:01;;;;;;;;;;;;;;;;;;5037352;28;19935;-78
2022/06/21 11:56:34;;;;;;;;;;;;;;;;;;5038540;28;19979;-77
2022/06/21 11:59:03;;;;;;;;;;;;;;;;;;5039758;28;19929;-79
2022/06/21 12:01:32;;;;;;;;;;;;;;;;;;5036816;28;19926;-79
2022/06/21 12:04:16;;;;;;;;;;;;;;;;;;5036324;28;19979;-78
2022/06/21 12:06:46;;;;;;;;;;;;;;;;;;5037883;28;20020;-79
2022/06/21 12:09:18;;;;;;;;;;;;;;;;;;5034332;28;19985;-78
2022/06/21 12:11:54;;;;;;;;;;;;;;;;;;5034035;28;20020;-76
2022/06/21 12:14:25;;;;;;;;;;;;;;;;;;5033447;28;19959;-80
2022/06/21 12:16:53;;;;;;;;;;;;;;;;;;5028306;28;19926;-82
2022/06/21 12:19:22;;;;;;;;;;;;;;;;;;5014089;28;19987;-77
2022/06/21 12:21:51;;;;;;;;;;;;;;;;;;5010334;28;19926;-77
2022/06/21 12:24:20;;;;;;;;;;;;;;;;;;5014060;28;19932;-78
2022/06/21 12:26:46;;;;;;;;;;;;;;;;;;5022951;28;19925;-78
2022/06/21 12:29:16;;;;;;;;;;;;;;;;;;5020528;28;19926;-75
2022/06/21 12:31:47;;;;;;;;;;;;;;;;;;5021916;28;20040;-78
2022/06/21 12:34:16;;;;;;;;;;;;;;;;;;5016492;28;19932;-78
2022/06/21 12:36:44;;;;;;;;;;;;;;;;;;5030949;28;19932;-76
2022/06/21 12:39:15;;;;;;;;;;;;;;;;;;5040076;28;19965;-77
2022/06/21 12:41:47;;;;;;;;;;;;;;;;;;5042028;28;19956;-78
2022/06/21 12:44:21;;;;;;;;;;;;;;;;;;5041600;28;20012;-78
2022/06/21 12:46:51;;;;;;;;;;;;;;;;;;5040752;28;19932;-77
2022/06/21 12:49:29;;;;;;;;;;;;;;;;;;5040762;28;20015;-77
2022/06/21 12:51:58;;;;;;;;;;;;;;;;;;5040940;28;20023;-78
2022/06/21 12:54:48;;;;;;;;;;;;;;;;;;5040454;28;19972;-78
2022/06/21 12:57:33;;;;;;;;;;;;;;;;;;5040712;28;19992;-78
2022/06/21 13:00:14;;;;;;;;;;;;;;;;;;5055448;28;19931;-79
2022/06/21 13:02:52;;;;;;;;;;;;;;;;;;5060556;28;19936;-79
2022/06/21 13:05:28;;;;;;;;;;;;;;;;;;5060525;28;19999;-78
2022/06/21 13:08:10;;;;;;;;;;;;;;;;;;5060536;28;20447;-77
2022/06/21 13:10:39;;;;;;;;;;;;;;;;;;5060731;28;19924;-79
2022/06/21 13:13:15;;;;;;;;;;;;;;;;;;5037497;28;20027;-78
2022/06/21 13:15:49;;;;;;;;;;;;;;;;;;5033905;28;19925;-77
2022/06/21 13:18:38;;;;;;;;;;;;;;;;;;5033894;28;20321;-76
2022/06/21 13:21:10;;;;;;;;;;;;;;;;;;5034160;28;19936;-78
2022/06/21 13:23:40;;;;;;;;;;;;;;;;;;5034081;28;20475;-78
2022/06/21 13:26:14;;;;;;;;;;;;;;;;;;5034264;28;19925;-77
2022/06/21 13:28:47;;;;;;;;;;;;;;;;;;5033665;28;19932;-77
2022/06/21 13:31:19;;;;;;;;;;;;;;;;;;5033608;28;20392;-77
2022/06/21 13:33:51;;;;;;;;;;;;;;;;;;5034060;28;20021;-78
2022/06/21 13:36:21;;;;;;;;;;;;;;;;;;5033816;28;20012;-78
2022/06/21 13:38:50;;;;;;;;;;;;;;;;;;5033755;28;19932;-78
2022/06/21 13:44:09;;;;;;;;;;;;;;;;;;5033157;28;19931;-77
2022/06/21 13:46:39;;;;;;;;;;;;;;;;;;5033260;28;20016;-77
2022/06/21 13:49:15;;;;;;;;;;;;;;;;;;5033406;28;19932;-76
2022/06/21 13:51:44;;;;;;;;;;;;;;;;;;5033142;28;20391;-76
2022/06/21 13:54:15;;;;;;;;;;;;;;;;;;5032807;28;19957;-76
2022/06/21 13:56:46;;;;;;;;;;;;;;;;;;5033033;28;19933;-76
2022/06/21 13:59:13;;;;;;;;;;;;;;;;;;5033341;28;19925;-77
2022/06/21 14:01:43;;;;;;;;;;;;;;;;;;5032244;28;20267;-76
2022/06/21 14:04:15;;;;;;;;;;;;;;;;;;5032897;28;19933;-77
2022/06/21 14:06:47;;;;;;;;;;;;;;;;;;5032871;28;20411;-77
2022/06/21 14:09:16;;;;;;;;;;;;;;;;;;5032948;28;20115;-77
2022/06/21 14:11:43;;;;;;;;;;;;;;;;;;5032923;28;19925;-77
2022/06/21 14:14:17;;;;;;;;;;;;;;;;;;5032986;28;20008;-77
2022/06/21 14:16:49;;;;;;;;;;;;;;;;;;5033904;28;20019;-77
2022/06/21 14:19:21;;;;;;;;;;;;;;;;;;5033226;28;19928;-77
2022/06/21 14:21:53;;;;;;;;;;;;;;;;;;5033123;28;20016;-78
2022/06/21 14:24:22;;;;;;;;;;;;;;;;;;5032654;28;19925;-77
2022/06/21 14:26:51;;;;;;;;;;;;;;;;;;5032568;28;19925;-78
2022/06/21 14:29:21;;;;;;;;;;;;;;;;;;5016442;28;19977;-78
2022/06/21 14:31:57;;;;;;;;;;;;;;;;;;5013361;28;19925;-78
2022/06/21 14:34:26;;;;;;;;;;;;;;;;;;5013689;28;19979;-80
2022/06/21 14:36:56;;;;;;;;;;;;;;;;;;5013521;28;20455;-77
2022/06/21 14:39:25;;;;;;;;;;;;;;;;;;5013329;28;19929;-76
2022/06/21 14:41:55;;;;;;;;;;;;;;;;;;5014021;28;19933;-78
2022/06/21 14:44:24;;;;;;;;;;;;;;;;;;5018132;28;20439;-77
2022/06/21 14:46:55;;;;;;;;;;;;;;;;;;5020315;28;20368;-78
2022/06/21 14:49:27;;;;;;;;;;;;;;;;;;5017809;28;19940;-77
2022/06/21 14:51:57;;;;;;;;;;;;;;;;;;5011719;28;19925;-77
2022/06/21 14:54:38;;;;;;;;;;;;;;;;;;5011636;28;19948;-77
2022/06/21 14:57:10;;;;;;;;;;;;;;;;;;5003374;28;20292;-77
2022/06/21 14:59:47;;;;;;;;;;;;;;;;;;5011793;28;19931;-76
2022/06/21 15:02:29;;;;;;;;;;;;;;;;;;5012351;28;20012;-77
2022/06/21 15:04:58;;;;;;;;;;;;;;;;;;5012118;28;20016;-76
2022/06/21 15:07:28;;;;;;;;;;;;;;;;;;5011491;28;20308;-76
2022/06/21 15:09:56;;;;;;;;;;;;;;;;;;5011690;28;19925;-76
2022/06/21 15:12:25;;;;;;;;;;;;;;;;;;5012155;28;20013;-77
2022/06/21 15:14:53;;;;;;;;;;;;;;;;;;5011665;28;19926;-76
2022/06/21 15:17:22;;;;;;;;;;;;;;;;;;5014348;28;19932;-78
2022/06/21 15:19:56;;;;;;;;;;;;;;;;;;5013861;28;19933;-78
2022/06/21 15:22:40;;;;;;;;;;;;;;;;;;5015201;28;19926;-77
2022/06/21 15:25:20;;;;;;;;;;;;;;;;;;5014447;28;20008;-77
2022/06/21 15:27:52;;;;;;;;;;;;;;;;;;5014357;28;19932;-77
2022/06/21 15:30:21;;;;;;;;;;;;;;;;;;5013986;28;19931;-77
2022/06/21 15:32:52;;;;;;;;;;;;;;;;;;5014490;28;19926;-77
2022/06/21 15:35:30;;;;;;;;;;;;;;;;;;5017885;28;19956;-77
2022/06/21 15:38:01;;;;;;;;;;;;;;;;;;5017720;28;19935;-78
2022/06/21 15:40:30;;;;;;;;;;;;;;;;;;5017494;28;20008;-78
2022/06/21 15:43:00;;;;;;;;;;;;;;;;;;5017608;28;20032;-78
2022/06/21 15:45:29;;;;;;;;;;;;;;;;;;5017041;28;20028;-78
2022/06/21 15:50:56;;;;;;;;;;;;;;;;;;5017310;28;19949;-76
2022/06/21 15:53:30;;;;;;;;;;;;;;;;;;5016936;28;20423;-76
2022/06/21 15:56:03;;;;;;;;;;;;;;;;;;5013979;28;19926;-77
2022/06/21 15:58:34;;;;;;;;;;;;;;;;;;5014140;28;20303;-77
2022/06/21 16:01:03;;;;;;;;;;;;;;;;;;5032387;28;19931;-78
2022/06/21 16:03:31;;;;;;;;;;;;;;;;;;5032374;28;19996;-78
2022/06/21 16:06:01;;;;;;;;;;;;;;;;;;5032867;28;19925;-77
2022/06/21 16:08:29;;;;;;;;;;;;;;;;;;5033331;28;20008;-77
2022/06/21 16:10:56;;;;;;;;;;;;;;;;;;5032997;28;20020;-77
2022/06/21 16:13:23;;;;;;;;;;;;;;;;;;5034620;28;20002;-78
2022/06/21 16:15:53;;;;;;;;;;;;;;;;;;5035715;28;19935;-76
2022/06/21 16:18:21;;;;;;;;;;;;;;;;;;5033057;28;19926;-77
2022/06/21 16:20:48;;;;;;;;;;;;;;;;;;5031024;28;19937;-77
2022/06/21 16:23:31;;;;;;;;;;;;;;;;;;5031109;28;20017;-76
2022/06/21 16:26:02;;;;;;;;;;;;;;;;;;5028892;28;19933;-76
2022/06/21 16:28:31;;;;;;;;;;;;;;;;;;5032422;28;19926;-76
2022/06/21 16:33:44;;;;;;;;;;;;;;;;;;5029796;28;19948;-77
2022/06/21 16:36:17;;;;;;;;;;;;;;;;;;5030448;28;20008;-77
2022/06/21 16:38:46;;;;;;;;;;;;;;;;;;5032271;28;19992;-77
2022/06/21 16:44:04;;;;;;;;;;;;;;;;;;5035693;28;20012;-77
2022/06/21 16:46:34;;;;;;;;;;;;;;;;;;5033968;28;20066;-77
2022/06/21 16:49:02;;;;;;;;;;;;;;;;;;5033259;28;19975;-77
2022/06/21 16:51:30;;;;;;;;;;;;;;;;;;5030763;28;19925;-77
2022/06/21 16:53:58;;;;;;;;;;;;;;;;;;5030318;28;19925;-77
2022/06/21 16:56:27;;;;;;;;;;;;;;;;;;5030154;28;20323;-77
2022/06/21 16:58:54;;;;;;;;;;;;;;;;;;5035021;28;19925;-77
2022/06/21 17:01:21;;;;;;;;;;;;;;;;;;5049423;28;19924;-76
2022/06/21 17:03:49;;;;;;;;;;;;;;;;;;5050115;28;20003;-77
2022/06/21 17:06:22;;;;;;;;;;;;;;;;;;5055655;28;20383;-79
2022/06/21 17:08:49;;;;;;;;;;;;;;;;;;5056068;28;20043;-78
2022/06/21 17:11:27;;;;;;;;;;;;;;;;;;5052416;28;20027;-78
2022/06/21 17:14:02;;;;;;;;;;;;;;;;;;5054651;28;19932;-77
2022/06/21 17:16:36;;;;;;;;;;;;;;;;;;5052664;28;19980;-77
2022/06/21 17:19:05;;;;;;;;;;;;;;;;;;5054030;28;19925;-77
2022/06/21 17:21:35;;;;;;;;;;;;;;;;;;5053907;28;19932;-78
2022/06/21 17:24:09;;;;;;;;;;;;;;;;;;5055137;28;19964;-77
2022/06/21 17:26:48;;;;;;;;;;;;;;;;;;5061610;28;19924;-78
2022/06/21 17:29:20;;;;;;;;;;;;;;;;;;5063814;28;19925;-76
2022/06/21 17:31:49;;;;;;;;;;;;;;;;;;5060111;28;20035;-77
2022/06/21 17:34:24;;;;;;;;;;;;;;;;;;5054219;28;19971;-76